sensor_id;sensor_type;location;lat;lon;timestamp;P1;durP1;ratioP1;P2;durP2;ratioP2
29452;SDS011;16424;50.956;5.320;2023-02-03T00:01:47;8.80;;;2.53;;
29452;SDS011;16424;50.956;5.320;2023-02-03T00:04:13;9.77;;;3.35;;
29452;SDS011;16424;50.956;5.320;2023-02-03T00:06:40;12.02;;;2.53;;
29452;SDS011;16424;50.956;5.320;2023-02-03T00:09:06;8.50;;;2.20;;
29452;SDS011;16424;50.956;5.320;2023-02-03T00:11:31;7.40;;;2.72;;
29452;SDS011;16424;50.956;5.320;2023-02-03T00:13:57;9.30;;;2.70;;
29452;SDS011;16424;50.956;5.320;2023-02-03T00:16:23;9.27;;;2.72;;
29452;SDS011;16424;50.956;5.320;2023-02-03T00:18:48;6.40;;;2.20;;
29452;SDS011;16424;50.956;5.320;2023-02-03T00:21:14;10.65;;;3.42;;
29452;SDS011;16424;50.956;5.320;2023-02-03T00:23:40;9.05;;;3.47;;
29452;SDS011;16424;50.956;5.320;2023-02-03T00:26:07;6.13;;;2.28;;
29452;SDS011;16424;50.956;5.320;2023-02-03T00:28:38;4.43;;;2.10;;
29452;SDS011;16424;50.956;5.320;2023-02-03T00:31:04;15.32;;;2.95;;
29452;SDS011;16424;50.956;5.320;2023-02-03T00:33:30;10.48;;;3.78;;
29452;SDS011;16424;50.956;5.320;2023-02-03T00:35:57;10.90;;;2.20;;
29452;SDS011;16424;50.956;5.320;2023-02-03T00:38:28;12.93;;;2.42;;
29452;SDS011;16424;50.956;5.320;2023-02-03T00:40:54;15.38;;;2.83;;
29452;SDS011;16424;50.956;5.320;2023-02-03T00:43:20;9.18;;;2.50;;
29452;SDS011;16424;50.956;5.320;2023-02-03T00:45:45;10.82;;;2.80;;
29452;SDS011;16424;50.956;5.320;2023-02-03T00:48:11;6.75;;;2.38;;
29452;SDS011;16424;50.956;5.320;2023-02-03T00:50:38;21.50;;;2.88;;
29452;SDS011;16424;50.956;5.320;2023-02-03T00:53:04;8.23;;;2.42;;
29452;SDS011;16424;50.956;5.320;2023-02-03T00:55:29;8.32;;;2.25;;
29452;SDS011;16424;50.956;5.320;2023-02-03T00:57:59;7.20;;;2.42;;
29452;SDS011;16424;50.956;5.320;2023-02-03T01:00:24;6.43;;;2.63;;
29452;SDS011;16424;50.956;5.320;2023-02-03T01:02:50;11.07;;;3.47;;
29452;SDS011;16424;50.956;5.320;2023-02-03T01:05:16;10.35;;;2.35;;
29452;SDS011;16424;50.956;5.320;2023-02-03T01:07:42;9.82;;;2.50;;
29452;SDS011;16424;50.956;5.320;2023-02-03T01:10:10;7.88;;;2.75;;
29452;SDS011;16424;50.956;5.320;2023-02-03T01:12:36;8.13;;;3.28;;
29452;SDS011;16424;50.956;5.320;2023-02-03T01:15:02;8.65;;;2.10;;
29452;SDS011;16424;50.956;5.320;2023-02-03T01:17:27;9.40;;;2.10;;
29452;SDS011;16424;50.956;5.320;2023-02-03T01:19:54;5.57;;;2.15;;
29452;SDS011;16424;50.956;5.320;2023-02-03T01:22:19;7.45;;;2.30;;
29452;SDS011;16424;50.956;5.320;2023-02-03T01:24:45;10.07;;;2.30;;
29452;SDS011;16424;50.956;5.320;2023-02-03T01:27:11;9.23;;;3.03;;
29452;SDS011;16424;50.956;5.320;2023-02-03T01:29:40;7.00;;;2.58;;
29452;SDS011;16424;50.956;5.320;2023-02-03T01:32:05;11.10;;;2.60;;
29452;SDS011;16424;50.956;5.320;2023-02-03T01:34:31;5.07;;;2.78;;
29452;SDS011;16424;50.956;5.320;2023-02-03T01:36:57;6.38;;;2.25;;
29452;SDS011;16424;50.956;5.320;2023-02-03T01:39:22;5.53;;;2.22;;
29452;SDS011;16424;50.956;5.320;2023-02-03T01:41:50;12.75;;;3.25;;
29452;SDS011;16424;50.956;5.320;2023-02-03T01:52:08;15.68;;;2.33;;
29452;SDS011;16424;50.956;5.320;2023-02-03T01:54:36;6.68;;;2.83;;
29452;SDS011;16424;50.956;5.320;2023-02-03T01:57:12;9.82;;;2.65;;
29452;SDS011;16424;50.956;5.320;2023-02-03T01:59:51;9.38;;;3.33;;
29452;SDS011;16424;50.956;5.320;2023-02-03T02:02:20;10.63;;;2.45;;
29452;SDS011;16424;50.956;5.320;2023-02-03T02:04:57;7.88;;;2.75;;
29452;SDS011;16424;50.956;5.320;2023-02-03T02:07:35;9.18;;;2.15;;
29452;SDS011;16424;50.956;5.320;2023-02-03T02:10:03;15.15;;;3.15;;
29452;SDS011;16424;50.956;5.320;2023-02-03T02:12:29;11.38;;;2.00;;
29452;SDS011;16424;50.956;5.320;2023-02-03T02:14:54;13.23;;;2.88;;
29452;SDS011;16424;50.956;5.320;2023-02-03T02:29:06;9.23;;;2.33;;
29452;SDS011;16424;50.956;5.320;2023-02-03T02:32:03;9.82;;;2.35;;
29452;SDS011;16424;50.956;5.320;2023-02-03T02:48:14;11.10;;;2.75;;
29452;SDS011;16424;50.956;5.320;2023-02-03T02:53:13;10.02;;;2.08;;
29452;SDS011;16424;50.956;5.320;2023-02-03T02:55:42;8.75;;;2.35;;
29452;SDS011;16424;50.956;5.320;2023-02-03T02:58:10;10.70;;;2.58;;
29452;SDS011;16424;50.956;5.320;2023-02-03T03:00:38;5.68;;;2.10;;
29452;SDS011;16424;50.956;5.320;2023-02-03T03:05:57;8.95;;;2.17;;
29452;SDS011;16424;50.956;5.320;2023-02-03T03:08:30;11.38;;;2.35;;
29452;SDS011;16424;50.956;5.320;2023-02-03T03:11:03;8.52;;;2.53;;
29452;SDS011;16424;50.956;5.320;2023-02-03T03:13:49;5.95;;;2.13;;
29452;SDS011;16424;50.956;5.320;2023-02-03T03:16:17;6.68;;;1.67;;
29452;SDS011;16424;50.956;5.320;2023-02-03T03:18:48;9.65;;;2.60;;
29452;SDS011;16424;50.956;5.320;2023-02-03T03:21:24;10.05;;;1.77;;
29452;SDS011;16424;50.956;5.320;2023-02-03T03:23:54;10.30;;;2.20;;
29452;SDS011;16424;50.956;5.320;2023-02-03T03:26:26;10.55;;;2.65;;
29452;SDS011;16424;50.956;5.320;2023-02-03T03:29:21;7.50;;;1.95;;
29452;SDS011;16424;50.956;5.320;2023-02-03T03:31:54;9.30;;;2.00;;
29452;SDS011;16424;50.956;5.320;2023-02-03T03:34:20;9.15;;;1.92;;
29452;SDS011;16424;50.956;5.320;2023-02-03T03:37:04;15.55;;;2.47;;
29452;SDS011;16424;50.956;5.320;2023-02-03T03:39:56;10.35;;;1.63;;
29452;SDS011;16424;50.956;5.320;2023-02-03T03:42:40;12.75;;;2.03;;
29452;SDS011;16424;50.956;5.320;2023-02-03T03:45:15;7.70;;;1.63;;
29452;SDS011;16424;50.956;5.320;2023-02-03T03:50:42;13.75;;;2.05;;
29452;SDS011;16424;50.956;5.320;2023-02-03T03:53:12;10.32;;;2.55;;
29452;SDS011;16424;50.956;5.320;2023-02-03T03:55:41;9.60;;;1.80;;
29452;SDS011;16424;50.956;5.320;2023-02-03T03:58:19;8.23;;;1.58;;
29452;SDS011;16424;50.956;5.320;2023-02-03T04:00:48;9.88;;;2.10;;
29452;SDS011;16424;50.956;5.320;2023-02-03T04:03:22;4.70;;;1.40;;
29452;SDS011;16424;50.956;5.320;2023-02-03T04:05:52;11.10;;;1.65;;
29452;SDS011;16424;50.956;5.320;2023-02-03T04:08:17;8.48;;;2.08;;
29452;SDS011;16424;50.956;5.320;2023-02-03T04:10:43;7.25;;;1.65;;
29452;SDS011;16424;50.956;5.320;2023-02-03T04:13:10;10.25;;;1.73;;
29452;SDS011;16424;50.956;5.320;2023-02-03T04:15:36;8.98;;;1.85;;
29452;SDS011;16424;50.956;5.320;2023-02-03T04:18:02;14.82;;;2.13;;
29452;SDS011;16424;50.956;5.320;2023-02-03T04:20:29;13.10;;;2.47;;
29452;SDS011;16424;50.956;5.320;2023-02-03T04:22:56;10.77;;;1.83;;
29452;SDS011;16424;50.956;5.320;2023-02-03T04:25:23;7.95;;;1.30;;
29452;SDS011;16424;50.956;5.320;2023-02-03T04:27:49;11.32;;;2.08;;
29452;SDS011;16424;50.956;5.320;2023-02-03T04:30:15;8.60;;;2.63;;
29452;SDS011;16424;50.956;5.320;2023-02-03T04:32:42;10.95;;;2.00;;
29452;SDS011;16424;50.956;5.320;2023-02-03T04:35:08;12.68;;;2.10;;
29452;SDS011;16424;50.956;5.320;2023-02-03T04:37:34;7.20;;;1.45;;
29452;SDS011;16424;50.956;5.320;2023-02-03T04:40:00;11.38;;;1.45;;
29452;SDS011;16424;50.956;5.320;2023-02-03T04:42:26;11.73;;;1.88;;
29452;SDS011;16424;50.956;5.320;2023-02-03T04:44:52;8.82;;;2.30;;
29452;SDS011;16424;50.956;5.320;2023-02-03T04:47:18;9.50;;;2.47;;
29452;SDS011;16424;50.956;5.320;2023-02-03T04:49:44;7.03;;;1.90;;
29452;SDS011;16424;50.956;5.320;2023-02-03T04:52:10;13.50;;;2.28;;
29452;SDS011;16424;50.956;5.320;2023-02-03T04:54:36;8.88;;;1.77;;
29452;SDS011;16424;50.956;5.320;2023-02-03T04:57:02;5.95;;;1.38;;
29452;SDS011;16424;50.956;5.320;2023-02-03T04:59:28;8.20;;;1.75;;
29452;SDS011;16424;50.956;5.320;2023-02-03T05:01:54;3.47;;;1.60;;
29452;SDS011;16424;50.956;5.320;2023-02-03T05:04:19;8.05;;;1.30;;
29452;SDS011;16424;50.956;5.320;2023-02-03T05:06:45;3.85;;;1.50;;
29452;SDS011;16424;50.956;5.320;2023-02-03T05:09:11;8.75;;;2.20;;
29452;SDS011;16424;50.956;5.320;2023-02-03T05:11:36;7.80;;;1.67;;
29452;SDS011;16424;50.956;5.320;2023-02-03T05:14:02;9.80;;;2.42;;
29452;SDS011;16424;50.956;5.320;2023-02-03T05:16:28;7.05;;;1.95;;
29452;SDS011;16424;50.956;5.320;2023-02-03T05:18:53;7.55;;;1.88;;
29452;SDS011;16424;50.956;5.320;2023-02-03T05:21:19;5.25;;;1.50;;
29452;SDS011;16424;50.956;5.320;2023-02-03T05:23:45;5.38;;;1.50;;
29452;SDS011;16424;50.956;5.320;2023-02-03T05:26:11;7.55;;;2.33;;
29452;SDS011;16424;50.956;5.320;2023-02-03T05:28:36;7.28;;;1.20;;
29452;SDS011;16424;50.956;5.320;2023-02-03T05:31:02;8.38;;;1.50;;
29452;SDS011;16424;50.956;5.320;2023-02-03T05:33:28;8.05;;;1.70;;
29452;SDS011;16424;50.956;5.320;2023-02-03T05:35:54;6.28;;;1.52;;
29452;SDS011;16424;50.956;5.320;2023-02-03T05:38:20;6.45;;;1.52;;
29452;SDS011;16424;50.956;5.320;2023-02-03T05:40:50;12.38;;;2.15;;
29452;SDS011;16424;50.956;5.320;2023-02-03T05:43:35;6.20;;;1.45;;
29452;SDS011;16424;50.956;5.320;2023-02-03T05:46:02;10.02;;;1.75;;
29452;SDS011;16424;50.956;5.320;2023-02-03T05:48:29;9.65;;;2.13;;
29452;SDS011;16424;50.956;5.320;2023-02-03T05:50:55;8.73;;;1.92;;
29452;SDS011;16424;50.956;5.320;2023-02-03T05:53:20;8.75;;;2.20;;
29452;SDS011;16424;50.956;5.320;2023-02-03T05:55:46;8.52;;;1.98;;
29452;SDS011;16424;50.956;5.320;2023-02-03T05:58:12;6.85;;;2.08;;
29452;SDS011;16424;50.956;5.320;2023-02-03T06:00:38;8.45;;;1.50;;
29452;SDS011;16424;50.956;5.320;2023-02-03T06:03:03;7.32;;;1.17;;
29452;SDS011;16424;50.956;5.320;2023-02-03T06:05:30;4.53;;;1.45;;
29452;SDS011;16424;50.956;5.320;2023-02-03T06:08:00;9.50;;;1.88;;
29452;SDS011;16424;50.956;5.320;2023-02-03T06:10:26;10.48;;;1.85;;
29452;SDS011;16424;50.956;5.320;2023-02-03T06:12:52;5.68;;;1.50;;
29452;SDS011;16424;50.956;5.320;2023-02-03T06:15:18;7.03;;;1.38;;
29452;SDS011;16424;50.956;5.320;2023-02-03T06:17:44;7.28;;;1.75;;
29452;SDS011;16424;50.956;5.320;2023-02-03T06:20:11;7.00;;;1.83;;
29452;SDS011;16424;50.956;5.320;2023-02-03T06:22:39;3.60;;;1.20;;
29452;SDS011;16424;50.956;5.320;2023-02-03T06:25:05;6.60;;;1.45;;
29452;SDS011;16424;50.956;5.320;2023-02-03T06:27:31;2.33;;;1.25;;
29452;SDS011;16424;50.956;5.320;2023-02-03T06:29:56;8.88;;;1.63;;
29452;SDS011;16424;50.956;5.320;2023-02-03T06:32:22;5.32;;;1.38;;
29452;SDS011;16424;50.956;5.320;2023-02-03T06:34:48;4.57;;;1.08;;
29452;SDS011;16424;50.956;5.320;2023-02-03T06:37:13;8.27;;;1.35;;
29452;SDS011;16424;50.956;5.320;2023-02-03T06:39:39;3.17;;;0.98;;
29452;SDS011;16424;50.956;5.320;2023-02-03T06:42:05;7.43;;;1.25;;
29452;SDS011;16424;50.956;5.320;2023-02-03T06:44:30;4.50;;;1.00;;
29452;SDS011;16424;50.956;5.320;2023-02-03T06:46:56;5.90;;;1.27;;
29452;SDS011;16424;50.956;5.320;2023-02-03T06:49:22;4.70;;;1.08;;
29452;SDS011;16424;50.956;5.320;2023-02-03T06:51:48;3.28;;;1.20;;
29452;SDS011;16424;50.956;5.320;2023-02-03T06:54:16;3.40;;;1.20;;
29452;SDS011;16424;50.956;5.320;2023-02-03T06:56:42;5.65;;;1.45;;
29452;SDS011;16424;50.956;5.320;2023-02-03T06:59:08;5.35;;;1.20;;
29452;SDS011;16424;50.956;5.320;2023-02-03T07:01:34;5.00;;;1.15;;
29452;SDS011;16424;50.956;5.320;2023-02-03T07:04:00;4.70;;;1.00;;
29452;SDS011;16424;50.956;5.320;2023-02-03T07:06:26;4.63;;;1.48;;
29452;SDS011;16424;50.956;5.320;2023-02-03T07:08:55;5.57;;;1.15;;
29452;SDS011;16424;50.956;5.320;2023-02-03T07:11:21;4.10;;;0.80;;
29452;SDS011;16424;50.956;5.320;2023-02-03T07:13:46;7.45;;;1.33;;
29452;SDS011;16424;50.956;5.320;2023-02-03T07:16:12;10.38;;;1.45;;
29452;SDS011;16424;50.956;5.320;2023-02-03T07:18:38;5.53;;;1.13;;
29452;SDS011;16424;50.956;5.320;2023-02-03T07:21:05;7.35;;;1.92;;
29452;SDS011;16424;50.956;5.320;2023-02-03T07:23:31;4.13;;;0.82;;
29452;SDS011;16424;50.956;5.320;2023-02-03T07:26:00;8.43;;;1.10;;
29452;SDS011;16424;50.956;5.320;2023-02-03T07:28:28;9.13;;;1.13;;
29452;SDS011;16424;50.956;5.320;2023-02-03T07:30:57;3.58;;;1.27;;
29452;SDS011;16424;50.956;5.320;2023-02-03T07:33:23;5.00;;;1.00;;
29452;SDS011;16424;50.956;5.320;2023-02-03T07:35:52;8.55;;;1.60;;
29452;SDS011;16424;50.956;5.320;2023-02-03T07:38:22;3.38;;;1.30;;
29452;SDS011;16424;50.956;5.320;2023-02-03T07:40:48;6.10;;;1.40;;
29452;SDS011;16424;50.956;5.320;2023-02-03T07:43:14;8.35;;;2.05;;
29452;SDS011;16424;50.956;5.320;2023-02-03T07:45:39;5.80;;;1.50;;
29452;SDS011;16424;50.956;5.320;2023-02-03T07:48:05;7.72;;;1.23;;
29452;SDS011;16424;50.956;5.320;2023-02-03T07:50:31;2.70;;;1.23;;
29452;SDS011;16424;50.956;5.320;2023-02-03T07:52:57;4.90;;;1.20;;
29452;SDS011;16424;50.956;5.320;2023-02-03T07:55:24;4.05;;;1.08;;
29452;SDS011;16424;50.956;5.320;2023-02-03T07:57:50;9.25;;;1.40;;
29452;SDS011;16424;50.956;5.320;2023-02-03T08:00:18;7.93;;;1.13;;
29452;SDS011;16424;50.956;5.320;2023-02-03T08:02:44;5.22;;;1.75;;
29452;SDS011;16424;50.956;5.320;2023-02-03T08:05:11;10.77;;;1.50;;
29452;SDS011;16424;50.956;5.320;2023-02-03T08:07:37;3.88;;;1.15;;
29452;SDS011;16424;50.956;5.320;2023-02-03T08:10:03;2.33;;;0.90;;
29452;SDS011;16424;50.956;5.320;2023-02-03T08:12:29;7.57;;;2.78;;
29452;SDS011;16424;50.956;5.320;2023-02-03T08:14:55;8.80;;;1.13;;
29452;SDS011;16424;50.956;5.320;2023-02-03T08:17:21;6.40;;;0.95;;
29452;SDS011;16424;50.956;5.320;2023-02-03T08:19:46;6.32;;;1.40;;
29452;SDS011;16424;50.956;5.320;2023-02-03T08:22:12;3.45;;;1.30;;
29452;SDS011;16424;50.956;5.320;2023-02-03T08:24:43;8.32;;;1.67;;
29452;SDS011;16424;50.956;5.320;2023-02-03T08:27:14;2.60;;;0.85;;
29452;SDS011;16424;50.956;5.320;2023-02-03T08:29:41;5.03;;;1.30;;
29452;SDS011;16424;50.956;5.320;2023-02-03T08:32:10;5.65;;;1.45;;
29452;SDS011;16424;50.956;5.320;2023-02-03T08:34:37;8.27;;;1.08;;
29452;SDS011;16424;50.956;5.320;2023-02-03T08:37:03;9.20;;;1.40;;
29452;SDS011;16424;50.956;5.320;2023-02-03T08:39:29;3.10;;;1.17;;
29452;SDS011;16424;50.956;5.320;2023-02-03T08:41:55;5.28;;;1.10;;
29452;SDS011;16424;50.956;5.320;2023-02-03T08:44:21;5.28;;;1.63;;
29452;SDS011;16424;50.956;5.320;2023-02-03T08:46:50;9.48;;;1.40;;
29452;SDS011;16424;50.956;5.320;2023-02-03T08:49:17;7.50;;;1.55;;
29452;SDS011;16424;50.956;5.320;2023-02-03T08:51:45;5.80;;;1.65;;
29452;SDS011;16424;50.956;5.320;2023-02-03T08:54:11;7.35;;;1.65;;
29452;SDS011;16424;50.956;5.320;2023-02-03T08:56:38;5.40;;;1.50;;
29452;SDS011;16424;50.956;5.320;2023-02-03T08:59:04;5.78;;;1.45;;
29452;SDS011;16424;50.956;5.320;2023-02-03T09:01:29;8.82;;;2.25;;
29452;SDS011;16424;50.956;5.320;2023-02-03T09:03:55;8.35;;;1.85;;
29452;SDS011;16424;50.956;5.320;2023-02-03T09:06:21;11.57;;;3.10;;
29452;SDS011;16424;50.956;5.320;2023-02-03T09:08:47;5.82;;;2.10;;
29452;SDS011;16424;50.956;5.320;2023-02-03T09:11:14;7.22;;;1.60;;
29452;SDS011;16424;50.956;5.320;2023-02-03T09:13:41;4.35;;;1.42;;
29452;SDS011;16424;50.956;5.320;2023-02-03T09:16:10;5.50;;;2.05;;
29452;SDS011;16424;50.956;5.320;2023-02-03T09:18:37;3.58;;;1.10;;
29452;SDS011;16424;50.956;5.320;2023-02-03T09:21:04;6.65;;;1.70;;
29452;SDS011;16424;50.956;5.320;2023-02-03T09:23:31;6.57;;;1.38;;
29452;SDS011;16424;50.956;5.320;2023-02-03T09:26:00;6.43;;;1.50;;
29452;SDS011;16424;50.956;5.320;2023-02-03T09:28:27;6.55;;;1.63;;
29452;SDS011;16424;50.956;5.320;2023-02-03T09:30:53;5.32;;;1.40;;
29452;SDS011;16424;50.956;5.320;2023-02-03T09:33:18;2.35;;;1.50;;
29452;SDS011;16424;50.956;5.320;2023-02-03T09:35:51;4.93;;;1.80;;
29452;SDS011;16424;50.956;5.320;2023-02-03T09:38:17;9.85;;;1.88;;
29452;SDS011;16424;50.956;5.320;2023-02-03T09:40:43;12.20;;;2.38;;
29452;SDS011;16424;50.956;5.320;2023-02-03T09:43:12;5.13;;;1.73;;
29452;SDS011;16424;50.956;5.320;2023-02-03T09:45:48;12.35;;;2.70;;
29452;SDS011;16424;50.956;5.320;2023-02-03T09:48:18;7.35;;;2.45;;
29452;SDS011;16424;50.956;5.320;2023-02-03T09:50:48;7.30;;;2.22;;
29452;SDS011;16424;50.956;5.320;2023-02-03T09:53:22;4.55;;;1.58;;
29452;SDS011;16424;50.956;5.320;2023-02-03T09:56:11;6.15;;;2.08;;
29452;SDS011;16424;50.956;5.320;2023-02-03T09:58:47;7.60;;;2.47;;
29452;SDS011;16424;50.956;5.320;2023-02-03T10:01:13;3.22;;;1.60;;
29452;SDS011;16424;50.956;5.320;2023-02-03T10:06:15;6.93;;;1.73;;
29452;SDS011;16424;50.956;5.320;2023-02-03T10:17:45;6.65;;;1.88;;
29452;SDS011;16424;50.956;5.320;2023-02-03T10:20:18;4.05;;;1.83;;
29452;SDS011;16424;50.956;5.320;2023-02-03T10:22:49;7.80;;;1.75;;
29452;SDS011;16424;50.956;5.320;2023-02-03T10:25:19;3.72;;;1.83;;
29452;SDS011;16424;50.956;5.320;2023-02-03T10:27:48;6.35;;;2.10;;
29452;SDS011;16424;50.956;5.320;2023-02-03T10:30:24;8.10;;;2.08;;
29452;SDS011;16424;50.956;5.320;2023-02-03T10:32:54;5.57;;;2.05;;
29452;SDS011;16424;50.956;5.320;2023-02-03T10:40:29;9.05;;;2.78;;
29452;SDS011;16424;50.956;5.320;2023-02-03T10:42:54;7.75;;;2.30;;
29452;SDS011;16424;50.956;5.320;2023-02-03T10:45:39;5.72;;;3.40;;
29452;SDS011;16424;50.956;5.320;2023-02-03T10:51:14;8.48;;;2.10;;
29452;SDS011;16424;50.956;5.320;2023-02-03T10:53:54;7.55;;;3.40;;
29452;SDS011;16424;50.956;5.320;2023-02-03T10:56:21;6.00;;;3.17;;
29452;SDS011;16424;50.956;5.320;2023-02-03T10:58:54;9.52;;;3.30;;
29452;SDS011;16424;50.956;5.320;2023-02-03T11:01:24;10.40;;;2.90;;
29452;SDS011;16424;50.956;5.320;2023-02-03T11:03:53;8.82;;;3.53;;
29452;SDS011;16424;50.956;5.320;2023-02-03T11:06:27;9.05;;;3.80;;
29452;SDS011;16424;50.956;5.320;2023-02-03T11:08:53;11.25;;;3.45;;
29452;SDS011;16424;50.956;5.320;2023-02-03T11:11:21;12.32;;;3.63;;
29452;SDS011;16424;50.956;5.320;2023-02-03T11:16:31;8.27;;;4.60;;
29452;SDS011;16424;50.956;5.320;2023-02-03T11:21:27;10.02;;;3.67;;
29452;SDS011;16424;50.956;5.320;2023-02-03T11:26:42;6.57;;;3.22;;
29452;SDS011;16424;50.956;5.320;2023-02-03T11:29:17;9.65;;;3.50;;
29452;SDS011;16424;50.956;5.320;2023-02-03T11:31:52;7.03;;;3.22;;
29452;SDS011;16424;50.956;5.320;2023-02-03T11:34:44;8.38;;;3.53;;
29452;SDS011;16424;50.956;5.320;2023-02-03T11:42:32;7.30;;;3.67;;
29452;SDS011;16424;50.956;5.320;2023-02-03T11:45:46;12.65;;;3.55;;
29452;SDS011;16424;50.956;5.320;2023-02-03T11:47:54;7.45;;;4.28;;
29452;SDS011;16424;50.956;5.320;2023-02-03T12:18:13;7.22;;;4.43;;
29452;SDS011;16424;50.956;5.320;2023-02-03T12:21:06;5.40;;;3.85;;
29452;SDS011;16424;50.956;5.320;2023-02-03T12:24:06;10.82;;;4.22;;
29452;SDS011;16424;50.956;5.320;2023-02-03T12:30:11;8.23;;;3.70;;
29452;SDS011;16424;50.956;5.320;2023-02-03T12:35:47;8.07;;;3.42;;
29452;SDS011;16424;50.956;5.320;2023-02-03T12:40:59;6.40;;;3.20;;
29452;SDS011;16424;50.956;5.320;2023-02-03T12:43:41;10.40;;;3.30;;
29452;SDS011;16424;50.956;5.320;2023-02-03T12:46:26;10.90;;;3.83;;
29452;SDS011;16424;50.956;5.320;2023-02-03T12:51:34;7.18;;;3.03;;
29452;SDS011;16424;50.956;5.320;2023-02-03T13:11:37;8.20;;;3.65;;
29452;SDS011;16424;50.956;5.320;2023-02-03T13:14:13;7.95;;;3.67;;
29452;SDS011;16424;50.956;5.320;2023-02-03T13:19:45;8.48;;;4.30;;
29452;SDS011;16424;50.956;5.320;2023-02-03T13:22:14;9.18;;;3.60;;
29452;SDS011;16424;50.956;5.320;2023-02-03T13:24:48;6.00;;;3.88;;
29452;SDS011;16424;50.956;5.320;2023-02-03T13:27:43;12.50;;;4.95;;
29452;SDS011;16424;50.956;5.320;2023-02-03T13:30:22;7.80;;;4.47;;
29452;SDS011;16424;50.956;5.320;2023-02-03T13:38:34;8.50;;;3.78;;
29452;SDS011;16424;50.956;5.320;2023-02-03T13:43:39;5.90;;;3.53;;
29452;SDS011;16424;50.956;5.320;2023-02-03T13:46:17;8.83;;;3.40;;
29452;SDS011;16424;50.956;5.320;2023-02-03T13:48:46;7.25;;;3.45;;
29452;SDS011;16424;50.956;5.320;2023-02-03T13:51:20;11.13;;;3.50;;
29452;SDS011;16424;50.956;5.320;2023-02-03T13:53:50;7.05;;;3.92;;
29452;SDS011;16424;50.956;5.320;2023-02-03T13:56:23;9.02;;;3.38;;
29452;SDS011;16424;50.956;5.320;2023-02-03T14:01:38;6.30;;;3.20;;
29452;SDS011;16424;50.956;5.320;2023-02-03T14:09:20;7.10;;;2.95;;
29452;SDS011;16424;50.956;5.320;2023-02-03T14:17:52;7.78;;;3.28;;
29452;SDS011;16424;50.956;5.320;2023-02-03T14:20:31;6.68;;;2.60;;
29452;SDS011;16424;50.956;5.320;2023-02-03T14:25:29;8.07;;;2.97;;
29452;SDS011;16424;50.956;5.320;2023-02-03T14:28:07;10.32;;;3.28;;
29452;SDS011;16424;50.956;5.320;2023-02-03T14:41:45;7.57;;;3.80;;
29452;SDS011;16424;50.956;5.320;2023-02-03T14:53:18;8.38;;;4.20;;
29452;SDS011;16424;50.956;5.320;2023-02-03T14:58:43;6.25;;;3.42;;
29452;SDS011;16424;50.956;5.320;2023-02-03T15:06:40;4.28;;;3.17;;
29452;SDS011;16424;50.956;5.320;2023-02-03T15:11:48;7.63;;;4.38;;
29452;SDS011;16424;50.956;5.320;2023-02-03T15:14:21;10.90;;;3.33;;
29452;SDS011;16424;50.956;5.320;2023-02-03T15:16:55;8.80;;;3.28;;
29452;SDS011;16424;50.956;5.320;2023-02-03T15:19:24;10.48;;;4.10;;
29452;SDS011;16424;50.956;5.320;2023-02-03T15:21:57;6.55;;;3.22;;
29452;SDS011;16424;50.956;5.320;2023-02-03T15:24:22;7.82;;;3.22;;
29452;SDS011;16424;50.956;5.320;2023-02-03T15:26:51;10.30;;;3.25;;
29452;SDS011;16424;50.956;5.320;2023-02-03T15:29:27;6.07;;;3.20;;
29452;SDS011;16424;50.956;5.320;2023-02-03T15:32:01;4.85;;;2.90;;
29452;SDS011;16424;50.956;5.320;2023-02-03T15:42:22;8.93;;;2.67;;
29452;SDS011;16424;50.956;5.320;2023-02-03T15:44:58;8.95;;;2.60;;
29452;SDS011;16424;50.956;5.320;2023-02-03T15:47:33;6.60;;;2.42;;
29452;SDS011;16424;50.956;5.320;2023-02-03T15:50:07;4.75;;;2.70;;
29452;SDS011;16424;50.956;5.320;2023-02-03T15:52:47;9.15;;;2.78;;
29452;SDS011;16424;50.956;5.320;2023-02-03T15:55:21;4.65;;;2.90;;
29452;SDS011;16424;50.956;5.320;2023-02-03T15:57:49;7.10;;;3.10;;
29452;SDS011;16424;50.956;5.320;2023-02-03T16:00:22;7.35;;;2.58;;
29452;SDS011;16424;50.956;5.320;2023-02-03T16:02:57;8.98;;;2.90;;
29452;SDS011;16424;50.956;5.320;2023-02-03T16:05:25;5.97;;;2.80;;
29452;SDS011;16424;50.956;5.320;2023-02-03T16:10:53;5.75;;;2.63;;
29452;SDS011;16424;50.956;5.320;2023-02-03T16:13:23;6.80;;;2.50;;
29452;SDS011;16424;50.956;5.320;2023-02-03T16:18:51;6.05;;;2.45;;
29452;SDS011;16424;50.956;5.320;2023-02-03T16:22:01;8.50;;;3.00;;
29452;SDS011;16424;50.956;5.320;2023-02-03T16:24:36;7.00;;;2.40;;
29452;SDS011;16424;50.956;5.320;2023-02-03T16:29:51;7.05;;;2.53;;
29452;SDS011;16424;50.956;5.320;2023-02-03T16:32:36;8.50;;;2.95;;
29452;SDS011;16424;50.956;5.320;2023-02-03T16:35:20;4.43;;;2.22;;
29452;SDS011;16424;50.956;5.320;2023-02-03T16:38:15;8.93;;;2.75;;
29452;SDS011;16424;50.956;5.320;2023-02-03T16:41:00;6.30;;;3.47;;
29452;SDS011;16424;50.956;5.320;2023-02-03T16:43:46;6.40;;;2.90;;
29452;SDS011;16424;50.956;5.320;2023-02-03T16:46:30;7.72;;;2.80;;
29452;SDS011;16424;50.956;5.320;2023-02-03T16:49:14;5.20;;;2.80;;
29452;SDS011;16424;50.956;5.320;2023-02-03T16:51:58;6.85;;;3.15;;
29452;SDS011;16424;50.956;5.320;2023-02-03T16:54:25;10.80;;;2.80;;
29452;SDS011;16424;50.956;5.320;2023-02-03T16:56:52;9.07;;;2.97;;
29452;SDS011;16424;50.956;5.320;2023-02-03T16:59:18;6.90;;;2.90;;
29452;SDS011;16424;50.956;5.320;2023-02-03T17:01:43;7.03;;;2.78;;
29452;SDS011;16424;50.956;5.320;2023-02-03T17:04:09;5.95;;;2.92;;
29452;SDS011;16424;50.956;5.320;2023-02-03T17:06:38;6.85;;;2.90;;
29452;SDS011;16424;50.956;5.320;2023-02-03T17:09:05;7.90;;;3.20;;
29452;SDS011;16424;50.956;5.320;2023-02-03T17:11:32;5.22;;;2.60;;
29452;SDS011;16424;50.956;5.320;2023-02-03T17:13:58;6.93;;;2.33;;
29452;SDS011;16424;50.956;5.320;2023-02-03T17:16:24;7.72;;;3.42;;
29452;SDS011;16424;50.956;5.320;2023-02-03T17:18:51;7.88;;;3.13;;
29452;SDS011;16424;50.956;5.320;2023-02-03T17:21:21;7.57;;;3.05;;
29452;SDS011;16424;50.956;5.320;2023-02-03T17:23:49;5.65;;;2.67;;
29452;SDS011;16424;50.956;5.320;2023-02-03T17:26:15;7.00;;;3.00;;
29452;SDS011;16424;50.956;5.320;2023-02-03T17:28:41;8.93;;;3.80;;
29452;SDS011;16424;50.956;5.320;2023-02-03T17:31:09;11.07;;;3.42;;
29452;SDS011;16424;50.956;5.320;2023-02-03T17:33:40;7.35;;;3.80;;
29452;SDS011;16424;50.956;5.320;2023-02-03T17:38:35;8.30;;;3.22;;
29452;SDS011;16424;50.956;5.320;2023-02-03T17:41:13;7.35;;;3.30;;
29452;SDS011;16424;50.956;5.320;2023-02-03T17:43:41;10.80;;;4.35;;
29452;SDS011;16424;50.956;5.320;2023-02-03T17:46:08;10.57;;;3.50;;
29452;SDS011;16424;50.956;5.320;2023-02-03T17:48:35;8.27;;;4.22;;
29452;SDS011;16424;50.956;5.320;2023-02-03T17:53:34;10.10;;;3.78;;
29452;SDS011;16424;50.956;5.320;2023-02-03T17:56:06;9.85;;;4.13;;
29452;SDS011;16424;50.956;5.320;2023-02-03T17:58:37;9.30;;;4.57;;
29452;SDS011;16424;50.956;5.320;2023-02-03T18:01:10;9.30;;;4.57;;
29452;SDS011;16424;50.956;5.320;2023-02-03T18:03:49;16.17;;;4.20;;
29452;SDS011;16424;50.956;5.320;2023-02-03T18:06:17;8.60;;;3.80;;
29452;SDS011;16424;50.956;5.320;2023-02-03T18:08:45;10.23;;;3.85;;
29452;SDS011;16424;50.956;5.320;2023-02-03T18:11:12;8.15;;;3.78;;
29452;SDS011;16424;50.956;5.320;2023-02-03T18:13:40;8.55;;;3.90;;
29452;SDS011;16424;50.956;5.320;2023-02-03T18:16:09;10.25;;;3.72;;
29452;SDS011;16424;50.956;5.320;2023-02-03T18:18:40;11.55;;;3.72;;
29452;SDS011;16424;50.956;5.320;2023-02-03T18:21:07;11.73;;;4.07;;
29452;SDS011;16424;50.956;5.320;2023-02-03T18:23:36;8.77;;;3.92;;
29452;SDS011;16424;50.956;5.320;2023-02-03T18:26:03;10.38;;;3.58;;
29452;SDS011;16424;50.956;5.320;2023-02-03T18:28:30;10.38;;;3.90;;
29452;SDS011;16424;50.956;5.320;2023-02-03T18:31:03;10.02;;;4.03;;
29452;SDS011;16424;50.956;5.320;2023-02-03T18:35:57;9.15;;;3.55;;